sensor_id;sensor_type;location;lat;lon;timestamp;temperature;humidity
19493;DHT22;9887;54.366;10.958;2024-03-08T00:00:17;4.20;99.90
19493;DHT22;9887;54.366;10.958;2024-03-08T00:02:48;4.20;99.90
19493;DHT22;9887;54.366;10.958;2024-03-08T00:05:18;4.20;99.90
19493;DHT22;9887;54.366;10.958;2024-03-08T00:07:46;4.20;99.90
19493;DHT22;9887;54.366;10.958;2024-03-08T00:10:13;4.10;99.90
19493;DHT22;9887;54.366;10.958;2024-03-08T00:12:43;4.10;99.90
19493;DHT22;9887;54.366;10.958;2024-03-08T00:15:12;4.10;99.90
19493;DHT22;9887;54.366;10.958;2024-03-08T00:17:43;4.10;99.90
19493;DHT22;9887;54.366;10.958;2024-03-08T00:20:13;4.10;99.90
19493;DHT22;9887;54.366;10.958;2024-03-08T00:22:42;4.10;99.90
19493;DHT22;9887;54.366;10.958;2024-03-08T00:25:10;4.10;99.90
19493;DHT22;9887;54.366;10.958;2024-03-08T00:27:38;4.10;99.90
19493;DHT22;9887;54.366;10.958;2024-03-08T00:30:08;4.10;99.90
19493;DHT22;9887;54.366;10.958;2024-03-08T00:32:37;4.10;99.90
19493;DHT22;9887;54.366;10.958;2024-03-08T00:35:06;4.10;99.90
19493;DHT22;9887;54.366;10.958;2024-03-08T00:37:36;4.20;99.90
19493;DHT22;9887;54.366;10.958;2024-03-08T00:40:05;4.10;99.90
19493;DHT22;9887;54.366;10.958;2024-03-08T00:42:36;4.00;99.90
19493;DHT22;9887;54.366;10.958;2024-03-08T00:45:05;4.10;99.90
19493;DHT22;9887;54.366;10.958;2024-03-08T00:47:34;4.10;99.90
19493;DHT22;9887;54.366;10.958;2024-03-08T00:50:02;4.00;99.90
19493;DHT22;9887;54.366;10.958;2024-03-08T00:52:31;4.00;99.90
19493;DHT22;9887;54.366;10.958;2024-03-08T00:55:03;4.00;99.90
19493;DHT22;9887;54.366;10.958;2024-03-08T00:57:31;4.10;99.90
19493;DHT22;9887;54.366;10.958;2024-03-08T01:00:02;4.10;99.90
19493;DHT22;9887;54.366;10.958;2024-03-08T01:02:31;4.00;99.90
19493;DHT22;9887;54.366;10.958;2024-03-08T01:05:00;4.00;99.90
19493;DHT22;9887;54.366;10.958;2024-03-08T01:07:28;4.00;99.90
19493;DHT22;9887;54.366;10.958;2024-03-08T01:09:57;4.10;99.90
19493;DHT22;9887;54.366;10.958;2024-03-08T01:12:26;4.10;99.90
19493;DHT22;9887;54.366;10.958;2024-03-08T01:14:54;4.00;99.90
19493;DHT22;9887;54.366;10.958;2024-03-08T01:17:22;4.00;99.90
19493;DHT22;9887;54.366;10.958;2024-03-08T01:19:50;4.00;99.90
19493;DHT22;9887;54.366;10.958;2024-03-08T01:22:19;4.10;99.90
19493;DHT22;9887;54.366;10.958;2024-03-08T01:24:47;4.00;99.90
19493;DHT22;9887;54.366;10.958;2024-03-08T01:27:15;4.00;99.90
19493;DHT22;9887;54.366;10.958;2024-03-08T01:29:44;4.00;99.90
19493;DHT22;9887;54.366;10.958;2024-03-08T01:32:12;4.00;99.90
19493;DHT22;9887;54.366;10.958;2024-03-08T01:34:40;4.10;99.90
19493;DHT22;9887;54.366;10.958;2024-03-08T01:37:08;4.00;99.90
19493;DHT22;9887;54.366;10.958;2024-03-08T01:39:36;4.10;99.90
19493;DHT22;9887;54.366;10.958;2024-03-08T01:42:04;4.00;99.90
19493;DHT22;9887;54.366;10.958;2024-03-08T01:44:32;4.00;99.90
19493;DHT22;9887;54.366;10.958;2024-03-08T01:47:02;4.00;99.90
19493;DHT22;9887;54.366;10.958;2024-03-08T01:49:30;4.00;99.90
19493;DHT22;9887;54.366;10.958;2024-03-08T01:52:00;3.90;99.90
19493;DHT22;9887;54.366;10.958;2024-03-08T01:54:28;4.00;99.90
19493;DHT22;9887;54.366;10.958;2024-03-08T01:56:57;4.00;99.90
19493;DHT22;9887;54.366;10.958;2024-03-08T01:59:25;4.00;99.90
19493;DHT22;9887;54.366;10.958;2024-03-08T02:01:55;4.10;99.90
19493;DHT22;9887;54.366;10.958;2024-03-08T02:04:30;4.10;99.90
19493;DHT22;9887;54.366;10.958;2024-03-08T02:06:58;4.10;99.90
19493;DHT22;9887;54.366;10.958;2024-03-08T02:09:27;4.10;99.90
19493;DHT22;9887;54.366;10.958;2024-03-08T02:11:57;4.10;99.90
19493;DHT22;9887;54.366;10.958;2024-03-08T02:14:30;4.00;99.90
19493;DHT22;9887;54.366;10.958;2024-03-08T02:17:00;4.10;99.90
19493;DHT22;9887;54.366;10.958;2024-03-08T02:19:29;4.10;99.90
19493;DHT22;9887;54.366;10.958;2024-03-08T02:21:59;4.00;99.90
19493;DHT22;9887;54.366;10.958;2024-03-08T02:24:31;4.00;99.90
19493;DHT22;9887;54.366;10.958;2024-03-08T02:26:59;4.00;99.90
19493;DHT22;9887;54.366;10.958;2024-03-08T02:29:28;4.00;99.90
19493;DHT22;9887;54.366;10.958;2024-03-08T02:31:56;4.00;99.90
19493;DHT22;9887;54.366;10.958;2024-03-08T02:34:24;4.10;99.90
19493;DHT22;9887;54.366;10.958;2024-03-08T02:36:52;4.00;99.90
19493;DHT22;9887;54.366;10.958;2024-03-08T02:39:21;4.00;99.90
19493;DHT22;9887;54.366;10.958;2024-03-08T02:41:49;4.00;99.90
19493;DHT22;9887;54.366;10.958;2024-03-08T02:44:17;4.00;99.90
19493;DHT22;9887;54.366;10.958;2024-03-08T02:46:48;4.00;99.90
19493;DHT22;9887;54.366;10.958;2024-03-08T02:49:17;4.00;99.90
19493;DHT22;9887;54.366;10.958;2024-03-08T02:51:45;3.90;99.90
19493;DHT22;9887;54.366;10.958;2024-03-08T02:54:12;4.00;99.90
19493;DHT22;9887;54.366;10.958;2024-03-08T02:56:42;3.90;99.90
19493;DHT22;9887;54.366;10.958;2024-03-08T02:59:10;4.00;99.90
19493;DHT22;9887;54.366;10.958;2024-03-08T03:01:37;4.10;99.90
19493;DHT22;9887;54.366;10.958;2024-03-08T03:04:05;4.00;99.90
19493;DHT22;9887;54.366;10.958;2024-03-08T03:06:33;4.00;99.90
19493;DHT22;9887;54.366;10.958;2024-03-08T03:09:02;3.90;99.90
19493;DHT22;9887;54.366;10.958;2024-03-08T03:11:32;3.90;99.90
19493;DHT22;9887;54.366;10.958;2024-03-08T03:14:02;3.90;99.90
19493;DHT22;9887;54.366;10.958;2024-03-08T03:16:31;4.00;99.90
19493;DHT22;9887;54.366;10.958;2024-03-08T03:18:58;3.90;99.90
19493;DHT22;9887;54.366;10.958;2024-03-08T03:21:28;4.00;99.90
19493;DHT22;9887;54.366;10.958;2024-03-08T03:23:58;3.90;99.90
19493;DHT22;9887;54.366;10.958;2024-03-08T03:26:26;4.00;99.90
19493;DHT22;9887;54.366;10.958;2024-03-08T03:28:54;3.90;99.90
19493;DHT22;9887;54.366;10.958;2024-03-08T03:31:25;4.00;99.90
19493;DHT22;9887;54.366;10.958;2024-03-08T03:33:53;3.90;99.90
19493;DHT22;9887;54.366;10.958;2024-03-08T03:36:21;3.90;99.90
19493;DHT22;9887;54.366;10.958;2024-03-08T03:38:48;4.00;99.90
19493;DHT22;9887;54.366;10.958;2024-03-08T03:41:18;4.00;99.90
19493;DHT22;9887;54.366;10.958;2024-03-08T03:43:46;4.00;99.90
19493;DHT22;9887;54.366;10.958;2024-03-08T03:46:16;4.00;99.90
19493;DHT22;9887;54.366;10.958;2024-03-08T03:48:45;4.00;99.90
19493;DHT22;9887;54.366;10.958;2024-03-08T03:51:13;3.90;99.90
19493;DHT22;9887;54.366;10.958;2024-03-08T03:53:42;4.00;99.90
19493;DHT22;9887;54.366;10.958;2024-03-08T03:56:10;4.00;99.90
19493;DHT22;9887;54.366;10.958;2024-03-08T03:58:38;4.00;99.90
19493;DHT22;9887;54.366;10.958;2024-03-08T04:01:06;3.90;99.90
19493;DHT22;9887;54.366;10.958;2024-03-08T04:03:34;3.90;99.90
19493;DHT22;9887;54.366;10.958;2024-03-08T04:06:04;4.00;99.90
19493;DHT22;9887;54.366;10.958;2024-03-08T04:08:32;4.00;99.90
19493;DHT22;9887;54.366;10.958;2024-03-08T04:11:01;3.90;99.90
19493;DHT22;9887;54.366;10.958;2024-03-08T04:13:29;4.00;99.90
19493;DHT22;9887;54.366;10.958;2024-03-08T04:15:57;3.90;99.90
19493;DHT22;9887;54.366;10.958;2024-03-08T04:18:27;4.00;99.90
19493;DHT22;9887;54.366;10.958;2024-03-08T04:20:55;3.90;99.90
19493;DHT22;9887;54.366;10.958;2024-03-08T04:23:25;3.90;99.90
19493;DHT22;9887;54.366;10.958;2024-03-08T04:25:52;3.90;99.90
19493;DHT22;9887;54.366;10.958;2024-03-08T04:28:20;3.90;99.90
19493;DHT22;9887;54.366;10.958;2024-03-08T04:30:48;4.00;99.90
19493;DHT22;9887;54.366;10.958;2024-03-08T04:33:17;4.10;99.90
19493;DHT22;9887;54.366;10.958;2024-03-08T04:35:46;4.00;99.90
19493;DHT22;9887;54.366;10.958;2024-03-08T04:38:14;4.00;99.90
19493;DHT22;9887;54.366;10.958;2024-03-08T04:40:43;4.00;99.90
19493;DHT22;9887;54.366;10.958;2024-03-08T04:43:11;3.90;99.90
19493;DHT22;9887;54.366;10.958;2024-03-08T04:45:40;4.00;99.90
19493;DHT22;9887;54.366;10.958;2024-03-08T04:48:10;3.90;99.90
19493;DHT22;9887;54.366;10.958;2024-03-08T04:50:39;4.10;99.90
19493;DHT22;9887;54.366;10.958;2024-03-08T04:53:07;4.10;99.90
19493;DHT22;9887;54.366;10.958;2024-03-08T04:55:35;3.90;99.90
19493;DHT22;9887;54.366;10.958;2024-03-08T04:58:05;4.10;99.90
19493;DHT22;9887;54.366;10.958;2024-03-08T05:00:34;4.00;99.90
19493;DHT22;9887;54.366;10.958;2024-03-08T05:03:02;4.00;99.90
19493;DHT22;9887;54.366;10.958;2024-03-08T05:05:31;4.00;99.90
19493;DHT22;9887;54.366;10.958;2024-03-08T05:08:00;4.00;99.90
19493;DHT22;9887;54.366;10.958;2024-03-08T05:10:29;4.10;99.90
19493;DHT22;9887;54.366;10.958;2024-03-08T05:12:57;4.00;99.90
19493;DHT22;9887;54.366;10.958;2024-03-08T05:15:26;4.00;99.90
19493;DHT22;9887;54.366;10.958;2024-03-08T05:17:54;4.00;99.90
19493;DHT22;9887;54.366;10.958;2024-03-08T05:20:24;4.10;99.90
19493;DHT22;9887;54.366;10.958;2024-03-08T05:22:52;4.00;99.90
19493;DHT22;9887;54.366;10.958;2024-03-08T05:25:20;4.00;99.90
19493;DHT22;9887;54.366;10.958;2024-03-08T05:27:48;4.10;99.90
19493;DHT22;9887;54.366;10.958;2024-03-08T05:30:17;4.10;99.90
19493;DHT22;9887;54.366;10.958;2024-03-08T05:32:46;4.10;99.90
19493;DHT22;9887;54.366;10.958;2024-03-08T05:35:15;4.20;99.90
19493;DHT22;9887;54.366;10.958;2024-03-08T05:37:43;4.00;99.90
19493;DHT22;9887;54.366;10.958;2024-03-08T05:40:14;4.10;99.90
19493;DHT22;9887;54.366;10.958;2024-03-08T05:42:45;4.20;99.90
19493;DHT22;9887;54.366;10.958;2024-03-08T05:45:13;4.10;99.90
19493;DHT22;9887;54.366;10.958;2024-03-08T05:47:42;4.10;99.90
19493;DHT22;9887;54.366;10.958;2024-03-08T05:50:11;4.10;99.90
19493;DHT22;9887;54.366;10.958;2024-03-08T05:52:39;4.00;99.90
19493;DHT22;9887;54.366;10.958;2024-03-08T05:55:07;4.00;99.90
19493;DHT22;9887;54.366;10.958;2024-03-08T05:57:36;4.10;99.90
19493;DHT22;9887;54.366;10.958;2024-03-08T06:00:07;4.20;99.90
19493;DHT22;9887;54.366;10.958;2024-03-08T06:02:40;4.10;99.90
19493;DHT22;9887;54.366;10.958;2024-03-08T06:05:11;4.10;99.90
19493;DHT22;9887;54.366;10.958;2024-03-08T06:07:38;4.10;99.90
19493;DHT22;9887;54.366;10.958;2024-03-08T06:10:08;4.10;99.90
19493;DHT22;9887;54.366;10.958;2024-03-08T06:12:38;4.10;99.90
19493;DHT22;9887;54.366;10.958;2024-03-08T06:15:08;4.10;99.90
19493;DHT22;9887;54.366;10.958;2024-03-08T06:17:45;4.10;99.90
19493;DHT22;9887;54.366;10.958;2024-03-08T06:20:15;4.20;99.90
19493;DHT22;9887;54.366;10.958;2024-03-08T06:22:43;4.10;99.90
19493;DHT22;9887;54.366;10.958;2024-03-08T06:25:12;4.10;99.90
19493;DHT22;9887;54.366;10.958;2024-03-08T06:27:40;4.10;99.90
19493;DHT22;9887;54.366;10.958;2024-03-08T06:30:10;4.20;99.90
19493;DHT22;9887;54.366;10.958;2024-03-08T06:32:39;4.10;99.90
19493;DHT22;9887;54.366;10.958;2024-03-08T06:35:09;4.10;99.90
19493;DHT22;9887;54.366;10.958;2024-03-08T06:37:39;4.10;99.90
19493;DHT22;9887;54.366;10.958;2024-03-08T06:40:10;4.20;99.90
19493;DHT22;9887;54.366;10.958;2024-03-08T06:42:40;4.10;99.90
19493;DHT22;9887;54.366;10.958;2024-03-08T06:45:09;4.10;99.90
19493;DHT22;9887;54.366;10.958;2024-03-08T06:47:39;4.20;99.90
19493;DHT22;9887;54.366;10.958;2024-03-08T06:50:09;4.20;99.90
19493;DHT22;9887;54.366;10.958;2024-03-08T06:52:39;4.10;99.90
19493;DHT22;9887;54.366;10.958;2024-03-08T06:55:09;4.10;99.90
19493;DHT22;9887;54.366;10.958;2024-03-08T06:57:38;4.10;99.90
19493;DHT22;9887;54.366;10.958;2024-03-08T07:00:08;4.10;99.90
19493;DHT22;9887;54.366;10.958;2024-03-08T07:02:38;4.20;99.90
19493;DHT22;9887;54.366;10.958;2024-03-08T07:05:07;4.10;99.90
19493;DHT22;9887;54.366;10.958;2024-03-08T07:07:38;4.10;99.90
19493;DHT22;9887;54.366;10.958;2024-03-08T07:10:09;4.20;99.90
19493;DHT22;9887;54.366;10.958;2024-03-08T07:12:38;4.10;99.90
19493;DHT22;9887;54.366;10.958;2024-03-08T07:15:07;4.20;99.90
19493;DHT22;9887;54.366;10.958;2024-03-08T07:17:40;4.20;99.90
19493;DHT22;9887;54.366;10.958;2024-03-08T07:20:09;4.10;99.90
19493;DHT22;9887;54.366;10.958;2024-03-08T07:22:40;4.00;99.90
19493;DHT22;9887;54.366;10.958;2024-03-08T07:25:11;4.10;99.90
19493;DHT22;9887;54.366;10.958;2024-03-08T07:27:47;4.00;99.90
19493;DHT22;9887;54.366;10.958;2024-03-08T07:30:15;4.00;99.90
19493;DHT22;9887;54.366;10.958;2024-03-08T07:33:01;4.10;99.90
19493;DHT22;9887;54.366;10.958;2024-03-08T07:35:29;4.00;99.90
19493;DHT22;9887;54.366;10.958;2024-03-08T07:37:59;4.10;99.90
19493;DHT22;9887;54.366;10.958;2024-03-08T07:40:27;4.10;99.90
19493;DHT22;9887;54.366;10.958;2024-03-08T07:42:55;4.00;99.90
19493;DHT22;9887;54.366;10.958;2024-03-08T07:45:23;4.00;99.90
19493;DHT22;9887;54.366;10.958;2024-03-08T07:47:51;3.90;99.90
19493;DHT22;9887;54.366;10.958;2024-03-08T07:50:20;4.10;99.90
19493;DHT22;9887;54.366;10.958;2024-03-08T07:52:49;4.10;99.90
19493;DHT22;9887;54.366;10.958;2024-03-08T07:55:19;4.00;99.90
19493;DHT22;9887;54.366;10.958;2024-03-08T07:57:46;4.10;99.90
19493;DHT22;9887;54.366;10.958;2024-03-08T08:00:15;4.00;99.90
19493;DHT22;9887;54.366;10.958;2024-03-08T08:02:45;4.10;99.90
19493;DHT22;9887;54.366;10.958;2024-03-08T08:05:13;4.10;99.90
19493;DHT22;9887;54.366;10.958;2024-03-08T08:07:44;4.10;99.90
19493;DHT22;9887;54.366;10.958;2024-03-08T08:10:15;4.00;99.90
19493;DHT22;9887;54.366;10.958;2024-03-08T08:12:46;4.10;99.90
19493;DHT22;9887;54.366;10.958;2024-03-08T08:15:15;4.10;99.90
19493;DHT22;9887;54.366;10.958;2024-03-08T08:17:43;4.00;99.90
19493;DHT22;9887;54.366;10.958;2024-03-08T08:20:11;4.00;99.90
19493;DHT22;9887;54.366;10.958;2024-03-08T08:22:40;4.00;99.90
19493;DHT22;9887;54.366;10.958;2024-03-08T08:25:09;4.00;99.90
19493;DHT22;9887;54.366;10.958;2024-03-08T08:27:39;4.00;99.90
19493;DHT22;9887;54.366;10.958;2024-03-08T08:30:12;4.10;99.90
19493;DHT22;9887;54.366;10.958;2024-03-08T08:32:40;4.00;99.90
19493;DHT22;9887;54.366;10.958;2024-03-08T08:35:09;4.10;99.90
19493;DHT22;9887;54.366;10.958;2024-03-08T08:37:39;4.10;99.90
19493;DHT22;9887;54.366;10.958;2024-03-08T08:40:08;4.10;99.90
19493;DHT22;9887;54.366;10.958;2024-03-08T08:42:37;4.10;99.90
19493;DHT22;9887;54.366;10.958;2024-03-08T08:45:06;4.20;99.90
19493;DHT22;9887;54.366;10.958;2024-03-08T08:47:53;4.10;99.90
19493;DHT22;9887;54.366;10.958;2024-03-08T08:50:22;4.10;99.90
19493;DHT22;9887;54.366;10.958;2024-03-08T08:52:51;4.20;99.90
19493;DHT22;9887;54.366;10.958;2024-03-08T08:55:20;4.10;99.90
19493;DHT22;9887;54.366;10.958;2024-03-08T08:57:51;4.20;99.90
19493;DHT22;9887;54.366;10.958;2024-03-08T09:00:20;4.10;99.90
19493;DHT22;9887;54.366;10.958;2024-03-08T09:02:48;4.10;99.90
19493;DHT22;9887;54.366;10.958;2024-03-08T09:05:19;4.20;99.90
19493;DHT22;9887;54.366;10.958;2024-03-08T09:07:48;4.10;99.90
19493;DHT22;9887;54.366;10.958;2024-03-08T09:10:16;4.20;99.90
19493;DHT22;9887;54.366;10.958;2024-03-08T09:12:48;4.20;99.90
19493;DHT22;9887;54.366;10.958;2024-03-08T09:15:16;4.20;99.90
19493;DHT22;9887;54.366;10.958;2024-03-08T09:17:47;4.20;99.90
19493;DHT22;9887;54.366;10.958;2024-03-08T09:20:15;4.20;99.90
19493;DHT22;9887;54.366;10.958;2024-03-08T09:22:45;4.30;99.90
19493;DHT22;9887;54.366;10.958;2024-03-08T09:25:13;4.30;99.90
19493;DHT22;9887;54.366;10.958;2024-03-08T09:27:41;4.30;99.90
19493;DHT22;9887;54.366;10.958;2024-03-08T09:30:10;4.40;99.90
19493;DHT22;9887;54.366;10.958;2024-03-08T09:32:40;4.30;99.90
19493;DHT22;9887;54.366;10.958;2024-03-08T09:35:08;4.30;99.90
19493;DHT22;9887;54.366;10.958;2024-03-08T09:37:37;4.40;99.90
19493;DHT22;9887;54.366;10.958;2024-03-08T09:40:07;4.40;99.90
19493;DHT22;9887;54.366;10.958;2024-03-08T09:42:37;4.30;99.90
19493;DHT22;9887;54.366;10.958;2024-03-08T09:45:09;4.40;99.90
19493;DHT22;9887;54.366;10.958;2024-03-08T09:47:39;4.40;99.90
19493;DHT22;9887;54.366;10.958;2024-03-08T09:50:09;4.30;99.90
19493;DHT22;9887;54.366;10.958;2024-03-08T09:52:39;4.40;99.90
19493;DHT22;9887;54.366;10.958;2024-03-08T09:55:10;4.40;99.90
19493;DHT22;9887;54.366;10.958;2024-03-08T09:57:40;4.50;99.90
19493;DHT22;9887;54.366;10.958;2024-03-08T10:00:13;4.50;99.90
19493;DHT22;9887;54.366;10.958;2024-03-08T10:02:45;4.50;99.90
19493;DHT22;9887;54.366;10.958;2024-03-08T10:05:13;4.50;99.90
19493;DHT22;9887;54.366;10.958;2024-03-08T10:07:41;4.50;99.90
19493;DHT22;9887;54.366;10.958;2024-03-08T10:10:10;4.50;99.90
19493;DHT22;9887;54.366;10.958;2024-03-08T10:12:39;4.60;99.90
19493;DHT22;9887;54.366;10.958;2024-03-08T10:15:08;4.60;99.90
19493;DHT22;9887;54.366;10.958;2024-03-08T10:17:36;4.60;99.90
19493;DHT22;9887;54.366;10.958;2024-03-08T10:20:13;4.50;99.90
19493;DHT22;9887;54.366;10.958;2024-03-08T10:22:42;4.60;99.90
19493;DHT22;9887;54.366;10.958;2024-03-08T10:25:25;4.60;99.90
19493;DHT22;9887;54.366;10.958;2024-03-08T10:27:55;4.70;99.90
19493;DHT22;9887;54.366;10.958;2024-03-08T10:30:24;4.60;99.90
19493;DHT22;9887;54.366;10.958;2024-03-08T10:32:52;4.70;99.90
19493;DHT22;9887;54.366;10.958;2024-03-08T10:35:20;4.80;99.90
19493;DHT22;9887;54.366;10.958;2024-03-08T10:37:50;4.70;99.90
19493;DHT22;9887;54.366;10.958;2024-03-08T10:40:27;4.70;99.90
19493;DHT22;9887;54.366;10.958;2024-03-08T10:42:57;4.80;99.90
19493;DHT22;9887;54.366;10.958;2024-03-08T10:45:35;4.80;99.90
19493;DHT22;9887;54.366;10.958;2024-03-08T10:48:10;4.80;99.90
19493;DHT22;9887;54.366;10.958;2024-03-08T10:50:44;4.80;99.90
19493;DHT22;9887;54.366;10.958;2024-03-08T10:53:16;4.80;99.90
19493;DHT22;9887;54.366;10.958;2024-03-08T10:55:50;4.80;99.90
19493;DHT22;9887;54.366;10.958;2024-03-08T10:58:21;4.80;99.90
19493;DHT22;9887;54.366;10.958;2024-03-08T11:00:49;4.90;99.90
19493;DHT22;9887;54.366;10.958;2024-03-08T11:03:46;4.80;99.90
19493;DHT22;9887;54.366;10.958;2024-03-08T11:06:22;4.80;99.90
19493;DHT22;9887;54.366;10.958;2024-03-08T11:08:50;4.80;99.90
19493;DHT22;9887;54.366;10.958;2024-03-08T11:11:28;4.80;99.90
19493;DHT22;9887;54.366;10.958;2024-03-08T11:14:01;4.90;99.90
19493;DHT22;9887;54.366;10.958;2024-03-08T11:16:39;4.90;99.90
19493;DHT22;9887;54.366;10.958;2024-03-08T11:19:30;4.90;99.90
19493;DHT22;9887;54.366;10.958;2024-03-08T11:22:02;5.00;99.90
19493;DHT22;9887;54.366;10.958;2024-03-08T11:24:38;4.90;99.90
19493;DHT22;9887;54.366;10.958;2024-03-08T11:27:10;4.90;99.90
19493;DHT22;9887;54.366;10.958;2024-03-08T11:29:39;5.00;99.90
19493;DHT22;9887;54.366;10.958;2024-03-08T11:32:08;5.10;99.90
19493;DHT22;9887;54.366;10.958;2024-03-08T11:34:45;5.00;99.90
19493;DHT22;9887;54.366;10.958;2024-03-08T11:37:15;5.00;99.90
19493;DHT22;9887;54.366;10.958;2024-03-08T11:39:48;5.00;99.90
19493;DHT22;9887;54.366;10.958;2024-03-08T11:42:18;5.10;99.90
19493;DHT22;9887;54.366;10.958;2024-03-08T11:44:48;5.10;99.90
19493;DHT22;9887;54.366;10.958;2024-03-08T11:47:24;5.10;99.90
19493;DHT22;9887;54.366;10.958;2024-03-08T11:49:53;5.10;99.90
19493;DHT22;9887;54.366;10.958;2024-03-08T11:52:21;5.20;99.90
19493;DHT22;9887;54.366;10.958;2024-03-08T11:54:53;5.20;99.90
19493;DHT22;9887;54.366;10.958;2024-03-08T11:57:26;5.10;99.90
19493;DHT22;9887;54.366;10.958;2024-03-08T11:59:56;5.20;99.90
19493;DHT22;9887;54.366;10.958;2024-03-08T12:02:24;5.10;99.90
19493;DHT22;9887;54.366;10.958;2024-03-08T12:04:56;5.30;99.90
19493;DHT22;9887;54.366;10.958;2024-03-08T12:07:26;5.20;99.90
19493;DHT22;9887;54.366;10.958;2024-03-08T12:10:14;5.20;99.90
19493;DHT22;9887;54.366;10.958;2024-03-08T12:12:45;5.40;99.90
19493;DHT22;9887;54.366;10.958;2024-03-08T12:15:15;5.40;99.90
19493;DHT22;9887;54.366;10.958;2024-03-08T12:17:45;5.40;99.90
19493;DHT22;9887;54.366;10.958;2024-03-08T12:20:16;5.30;99.90
19493;DHT22;9887;54.366;10.958;2024-03-08T12:22:45;5.40;99.90
19493;DHT22;9887;54.366;10.958;2024-03-08T12:25:13;5.40;99.90
19493;DHT22;9887;54.366;10.958;2024-03-08T12:27:43;5.50;99.90
19493;DHT22;9887;54.366;10.958;2024-03-08T12:30:21;5.40;99.90
19493;DHT22;9887;54.366;10.958;2024-03-08T12:32:53;5.50;99.90
19493;DHT22;9887;54.366;10.958;2024-03-08T12:35:24;5.50;99.90
19493;DHT22;9887;54.366;10.958;2024-03-08T12:37:53;5.60;99.90
19493;DHT22;9887;54.366;10.958;2024-03-08T12:40:26;5.60;99.90
19493;DHT22;9887;54.366;10.958;2024-03-08T12:42:55;5.60;99.90
19493;DHT22;9887;54.366;10.958;2024-03-08T12:45:25;5.70;99.90
19493;DHT22;9887;54.366;10.958;2024-03-08T12:47:54;5.60;99.90
19493;DHT22;9887;54.366;10.958;2024-03-08T12:50:23;5.60;99.90
19493;DHT22;9887;54.366;10.958;2024-03-08T12:52:52;5.70;99.90
19493;DHT22;9887;54.366;10.958;2024-03-08T12:55:20;5.70;99.90
19493;DHT22;9887;54.366;10.958;2024-03-08T12:57:48;5.70;99.90
19493;DHT22;9887;54.366;10.958;2024-03-08T13:00:20;5.70;99.90
19493;DHT22;9887;54.366;10.958;2024-03-08T13:02:51;5.70;99.90
19493;DHT22;9887;54.366;10.958;2024-03-08T13:05:19;5.80;99.90
19493;DHT22;9887;54.366;10.958;2024-03-08T13:07:47;5.80;99.90
19493;DHT22;9887;54.366;10.958;2024-03-08T13:10:16;5.80;99.90
19493;DHT22;9887;54.366;10.958;2024-03-08T13:12:47;5.90;99.90
19493;DHT22;9887;54.366;10.958;2024-03-08T13:15:19;5.90;99.90
19493;DHT22;9887;54.366;10.958;2024-03-08T13:17:47;5.90;99.90
19493;DHT22;9887;54.366;10.958;2024-03-08T13:20:17;5.90;99.90
19493;DHT22;9887;54.366;10.958;2024-03-08T13:22:56;5.90;99.90
19493;DHT22;9887;54.366;10.958;2024-03-08T13:25:27;5.90;99.90
19493;DHT22;9887;54.366;10.958;2024-03-08T13:27:54;6.00;99.90
19493;DHT22;9887;54.366;10.958;2024-03-08T13:30:25;6.10;99.90
19493;DHT22;9887;54.366;10.958;2024-03-08T13:32:54;6.00;99.90
19493;DHT22;9887;54.366;10.958;2024-03-08T13:35:23;6.10;99.90
19493;DHT22;9887;54.366;10.958;2024-03-08T13:37:56;6.00;99.90
19493;DHT22;9887;54.366;10.958;2024-03-08T13:40:24;6.10;99.90
19493;DHT22;9887;54.366;10.958;2024-03-08T13:42:52;6.10;99.90
19493;DHT22;9887;54.366;10.958;2024-03-08T13:45:21;6.20;99.90
19493;DHT22;9887;54.366;10.958;2024-03-08T13:47:52;6.10;99.90
19493;DHT22;9887;54.366;10.958;2024-03-08T13:50:22;6.20;99.90
19493;DHT22;9887;54.366;10.958;2024-03-08T13:52:52;6.20;99.90
19493;DHT22;9887;54.366;10.958;2024-03-08T13:55:22;6.10;99.90
19493;DHT22;9887;54.366;10.958;2024-03-08T13:57:52;6.20;99.90
19493;DHT22;9887;54.366;10.958;2024-03-08T14:00:20;6.10;99.90
19493;DHT22;9887;54.366;10.958;2024-03-08T14:02:49;6.20;99.90
19493;DHT22;9887;54.366;10.958;2024-03-08T14:05:17;6.20;99.90
19493;DHT22;9887;54.366;10.958;2024-03-08T14:07:48;6.30;99.90
19493;DHT22;9887;54.366;10.958;2024-03-08T14:10:17;6.30;99.90
19493;DHT22;9887;54.366;10.958;2024-03-08T14:12:47;6.40;99.90
19493;DHT22;9887;54.366;10.958;2024-03-08T14:15:17;6.30;99.90
19493;DHT22;9887;54.366;10.958;2024-03-08T14:17:52;6.30;99.90
19493;DHT22;9887;54.366;10.958;2024-03-08T14:20:20;6.30;99.90
19493;DHT22;9887;54.366;10.958;2024-03-08T14:22:53;6.40;99.90
19493;DHT22;9887;54.366;10.958;2024-03-08T14:25:23;6.40;99.90
19493;DHT22;9887;54.366;10.958;2024-03-08T14:27:52;6.40;99.90
19493;DHT22;9887;54.366;10.958;2024-03-08T14:30:21;6.40;99.90
19493;DHT22;9887;54.366;10.958;2024-03-08T14:33:01;6.40;99.90
19493;DHT22;9887;54.366;10.958;2024-03-08T14:35:30;6.40;99.90
19493;DHT22;9887;54.366;10.958;2024-03-08T14:37:59;6.40;99.90
19493;DHT22;9887;54.366;10.958;2024-03-08T14:40:28;6.40;99.90
19493;DHT22;9887;54.366;10.958;2024-03-08T14:42:57;6.40;99.90
19493;DHT22;9887;54.366;10.958;2024-03-08T14:45:25;6.40;99.90
19493;DHT22;9887;54.366;10.958;2024-03-08T14:47:53;6.30;99.90
19493;DHT22;9887;54.366;10.958;2024-03-08T14:50:23;6.30;99.90
19493;DHT22;9887;54.366;10.958;2024-03-08T14:52:51;6.40;99.90
19493;DHT22;9887;54.366;10.958;2024-03-08T14:55:21;6.30;99.90
19493;DHT22;9887;54.366;10.958;2024-03-08T14:57:49;6.30;99.90
19493;DHT22;9887;54.366;10.958;2024-03-08T15:00:19;6.30;99.90
19493;DHT22;9887;54.366;10.958;2024-03-08T15:03:00;6.30;99.90
19493;DHT22;9887;54.366;10.958;2024-03-08T15:05:29;6.40;99.90
19493;DHT22;9887;54.366;10.958;2024-03-08T15:07:59;6.40;99.90
19493;DHT22;9887;54.366;10.958;2024-03-08T15:10:29;6.40;99.90
19493;DHT22;9887;54.366;10.958;2024-03-08T15:13:00;6.40;99.90
19493;DHT22;9887;54.366;10.958;2024-03-08T15:15:34;6.40;99.90
19493;DHT22;9887;54.366;10.958;2024-03-08T15:18:07;6.30;99.90
19493;DHT22;9887;54.366;10.958;2024-03-08T15:20:35;6.30;99.90
19493;DHT22;9887;54.366;10.958;2024-03-08T15:23:03;6.20;99.90
19493;DHT22;9887;54.366;10.958;2024-03-08T15:25:32;6.30;99.90
19493;DHT22;9887;54.366;10.958;2024-03-08T15:28:03;6.30;99.90
19493;DHT22;9887;54.366;10.958;2024-03-08T15:30:39;6.30;99.90
19493;DHT22;9887;54.366;10.958;2024-03-08T15:33:11;6.20;99.90
19493;DHT22;9887;54.366;10.958;2024-03-08T15:35:41;6.30;99.90
19493;DHT22;9887;54.366;10.958;2024-03-08T15:38:15;6.30;99.90
19493;DHT22;9887;54.366;10.958;2024-03-08T15:40:46;6.30;99.90
19493;DHT22;9887;54.366;10.958;2024-03-08T15:43:16;6.20;99.90
19493;DHT22;9887;54.366;10.958;2024-03-08T15:45:46;6.20;99.90
19493;DHT22;9887;54.366;10.958;2024-03-08T15:48:14;6.20;99.90
19493;DHT22;9887;54.366;10.958;2024-03-08T15:50:43;6.20;99.90
19493;DHT22;9887;54.366;10.958;2024-03-08T15:53:10;6.20;99.90
19493;DHT22;9887;54.366;10.958;2024-03-08T15:55:39;6.20;99.90
19493;DHT22;9887;54.366;10.958;2024-03-08T15:58:09;6.20;99.90
19493;DHT22;9887;54.366;10.958;2024-03-08T16:00:40;6.10;99.90